Time;durP1;ratioP1;P1;durP2;ratioP2;P2;SDS_P1;SDS_P2;PMS_P1;PMS_P2;Temp;Humidity;BMP_temperature;BMP_pressure;BME280_temperature;BME280_humidity;BME280_pressure;Samples;Min_cycle;Max_cycle;Signal;HPM_P1;HPM_P2
2022/07/13 00:01:18;;;;;;;1.25;1.15;;;19.20;53.60;;;;;;5114318;28;20024;-70
2022/07/13 00:03:43;;;;;;;1.10;1.00;;;19.20;53.90;;;;;;5115187;28;20072;-69
2022/07/13 00:06:09;;;;;;;2.30;1.40;;;19.20;53.80;;;;;;5115139;28;20396;-69
2022/07/13 00:08:35;;;;;;;2.50;1.17;;;19.20;53.80;;;;;;5115109;28;20031;-69
2022/07/13 00:11:01;;;;;;;2.65;1.50;;;19.20;53.90;;;;;;5115059;28;20032;-70
2022/07/13 00:13:27;;;;;;;1.92;1.50;;;19.10;54.60;;;;;;5115025;27;20027;-70
2022/07/13 00:15:52;;;;;;;3.28;1.42;;;19.10;54.70;;;;;;5113649;28;20019;-69
2022/07/13 00:18:18;;;;;;;4.30;1.40;;;19.10;54.80;;;;;;5114854;28;20518;-71
2022/07/13 00:20:45;;;;;;;3.63;1.70;;;19.10;55.00;;;;;;5114662;28;20418;-69
2022/07/13 00:23:11;;;;;;;1.85;1.48;;;19.10;55.20;;;;;;5114764;28;20167;-70
2022/07/13 00:25:37;;;;;;;2.38;1.35;;;19.00;54.80;;;;;;5114797;28;20012;-71
2022/07/13 00:28:03;;;;;;;1.67;1.13;;;19.00;54.60;;;;;;5114575;28;20473;-68
2022/07/13 00:30:29;;;;;;;2.83;1.88;;;19.00;54.50;;;;;;5100534;28;20031;-70
2022/07/13 00:32:55;;;;;;;2.00;1.63;;;19.00;55.00;;;;;;5094045;28;20028;-70
2022/07/13 00:35:21;;;;;;;2.22;1.63;;;19.00;55.30;;;;;;5094410;28;20040;-70
2022/07/13 00:37:47;;;;;;;3.70;1.75;;;18.90;55.10;;;;;;5093332;28;20024;-68
2022/07/13 00:40:13;;;;;;;3.10;1.48;;;18.90;55.50;;;;;;5094021;28;20415;-71
2022/07/13 00:42:39;;;;;;;2.13;1.70;;;18.90;55.20;;;;;;5093974;28;20024;-71
2022/07/13 00:45:06;;;;;;;1.77;1.40;;;18.90;55.00;;;;;;5093983;28;20091;-69
2022/07/13 00:47:33;;;;;;;1.80;1.50;;;18.80;55.00;;;;;;5093946;28;20016;-70
2022/07/13 00:50:06;;;;;;;2.80;1.50;;;18.80;55.00;;;;;;5093907;28;20038;-69
2022/07/13 00:52:33;;;;;;;1.83;1.63;;;18.70;55.20;;;;;;5093936;28;20053;-71
2022/07/13 00:55:00;;;;;;;5.38;1.20;;;18.70;55.00;;;;;;5093796;28;20053;-71
2022/07/13 00:57:28;;;;;;;1.70;1.60;;;18.70;55.20;;;;;;5093825;28;20536;-71
2022/07/13 00:59:55;;;;;;;2.08;1.45;;;18.60;55.40;;;;;;5094024;28;20032;-69
2022/07/13 01:02:21;;;;;;;3.08;1.67;;;18.60;55.30;;;;;;5093576;28;20065;-71
2022/07/13 01:04:47;;;;;;;5.97;1.65;;;18.60;55.90;;;;;;5093565;28;20027;-70
2022/07/13 01:07:13;;;;;;;1.65;1.42;;;18.60;55.80;;;;;;5093519;28;20020;-70
2022/07/13 01:09:39;;;;;;;1.80;1.70;;;18.50;55.60;;;;;;5093444;28;20349;-69
2022/07/13 01:12:05;;;;;;;3.00;1.80;;;18.50;55.70;;;;;;5093395;28;20020;-71
2022/07/13 01:14:31;;;;;;;1.52;1.40;;;18.50;55.60;;;;;;5093354;28;20024;-70
2022/07/13 01:16:59;;;;;;;1.77;1.52;;;18.50;55.50;;;;;;5093346;28;20491;-71
2022/07/13 01:19:25;;;;;;;2.65;1.60;;;18.40;55.70;;;;;;5091928;28;20031;-71
2022/07/13 01:21:58;;;;;;;2.05;1.58;;;18.40;55.60;;;;;;5093312;28;20084;-69
2022/07/13 01:24:24;;;;;;;2.08;1.70;;;18.40;55.90;;;;;;5093285;28;20043;-70
2022/07/13 01:26:50;;;;;;;2.13;1.77;;;18.30;55.70;;;;;;5093271;28;20054;-70
2022/07/13 01:29:16;;;;;;;1.83;1.73;;;18.30;56.10;;;;;;5094546;28;20075;-69
2022/07/13 01:31:42;;;;;;;2.15;1.70;;;18.20;56.20;;;;;;5107345;28;20028;-70
2022/07/13 01:34:09;;;;;;;3.05;2.25;;;18.20;56.10;;;;;;5093140;28;20039;-70
2022/07/13 01:36:35;;;;;;;2.15;1.90;;;18.20;56.30;;;;;;5091877;28;20024;-68
2022/07/13 01:39:02;;;;;;;2.65;1.83;;;18.10;56.20;;;;;;5093132;28;20435;-71
2022/07/13 01:41:29;;;;;;;2.65;1.80;;;18.10;56.30;;;;;;5093046;28;20044;-67
2022/07/13 01:43:57;;;;;;;2.90;1.65;;;18.10;56.40;;;;;;5093076;28;20029;-72
2022/07/13 01:46:26;;;;;;;3.60;2.00;;;18.00;56.90;;;;;;5093128;28;20077;-69
2022/07/13 01:48:55;;;;;;;1.70;1.60;;;18.00;56.90;;;;;;5092950;28;20020;-71
2022/07/13 01:51:20;;;;;;;3.78;2.10;;;18.00;56.90;;;;;;5097268;28;20059;-70
2022/07/13 01:53:46;;;;;;;8.10;1.65;;;17.90;57.00;;;;;;5095860;28;20079;-68
2022/07/13 01:56:13;;;;;;;2.95;2.00;;;17.90;57.00;;;;;;5097176;28;20097;-70
2022/07/13 01:58:39;;;;;;;1.70;1.60;;;17.90;57.30;;;;;;5095804;28;20028;-69
2022/07/13 02:01:05;;;;;;;2.97;1.80;;;17.90;57.20;;;;;;5097104;28;20077;-68
2022/07/13 02:03:32;;;;;;;3.25;2.00;;;17.80;57.40;;;;;;5095740;28;20024;-70
2022/07/13 02:05:58;;;;;;;2.30;1.65;;;17.90;57.70;;;;;;5097024;28;20023;-70
2022/07/13 02:08:25;;;;;;;2.33;1.60;;;17.80;57.40;;;;;;5095721;28;20016;-69
2022/07/13 02:10:51;;;;;;;2.67;2.00;;;17.80;57.50;;;;;;5096901;28;20024;-71
2022/07/13 02:13:17;;;;;;;3.28;2.03;;;17.80;57.60;;;;;;5096913;28;20375;-71
2022/07/13 02:15:44;;;;;;;2.03;1.83;;;17.70;57.70;;;;;;5096763;28;20032;-70
2022/07/13 02:18:10;;;;;;;5.55;1.85;;;17.70;57.70;;;;;;5096780;28;20425;-69
2022/07/13 02:20:36;;;;;;;2.95;2.10;;;17.70;57.90;;;;;;5095270;28;20159;-72
2022/07/13 02:23:02;;;;;;;2.15;1.77;;;17.70;58.10;;;;;;5096578;28;20407;-71
2022/07/13 02:25:28;;;;;;;2.35;1.80;;;17.70;58.00;;;;;;5095643;28;20384;-72
2022/07/13 02:27:54;;;;;;;1.80;1.70;;;17.70;58.10;;;;;;5096475;28;20361;-69
2022/07/13 02:30:19;;;;;;;2.78;2.00;;;17.60;58.20;;;;;;5095425;28;20031;-70
2022/07/13 02:32:46;;;;;;;3.53;1.92;;;17.60;58.30;;;;;;5096321;28;20024;-71
2022/07/13 02:35:13;;;;;;;2.00;1.80;;;17.60;58.20;;;;;;5096414;28;20035;-71
2022/07/13 02:37:40;;;;;;;2.30;1.80;;;17.60;58.30;;;;;;5096399;28;20048;-69
2022/07/13 02:40:08;;;;;;;3.80;2.20;;;17.60;58.20;;;;;;5096344;28;20032;-71
2022/07/13 02:42:33;;;;;;;2.42;2.03;;;17.50;58.30;;;;;;5096141;28;20020;-69
2022/07/13 02:45:00;;;;;;;2.20;1.77;;;17.50;58.30;;;;;;5094893;28;20028;-69
2022/07/13 02:47:26;;;;;;;2.72;1.90;;;17.50;58.40;;;;;;5096187;28;20373;-70
2022/07/13 02:49:51;;;;;;;3.28;1.88;;;17.50;58.20;;;;;;5096057;28;20434;-69
2022/07/13 02:52:17;;;;;;;2.40;2.00;;;17.50;58.50;;;;;;5096031;28;20024;-69
2022/07/13 02:54:44;;;;;;;3.67;2.13;;;17.50;58.50;;;;;;5096016;28;20464;-69
2022/07/13 02:57:10;;;;;;;2.55;2.17;;;17.50;58.80;;;;;;5095951;28;20477;-71
2022/07/13 02:59:36;;;;;;;3.22;2.13;;;17.40;58.90;;;;;;5096017;28;20089;-69
2022/07/13 03:02:03;;;;;;;5.05;2.17;;;17.40;59.00;;;;;;5094660;28;20024;-71
2022/07/13 03:04:29;;;;;;;2.22;1.90;;;17.40;59.10;;;;;;5095871;28;20109;-71
2022/07/13 03:06:55;;;;;;;2.55;2.00;;;17.40;59.50;;;;;;5094536;28;20480;-70
2022/07/13 03:09:20;;;;;;;2.42;2.17;;;17.40;59.20;;;;;;5095784;28;20047;-69
2022/07/13 03:11:47;;;;;;;3.25;2.22;;;17.40;59.60;;;;;;5095738;28;20074;-71
2022/07/13 03:14:12;;;;;;;2.05;1.88;;;17.40;59.80;;;;;;5094386;28;20024;-69
2022/07/13 03:16:38;;;;;;;2.35;2.10;;;17.40;59.60;;;;;;5095704;28;20476;-69
2022/07/13 03:19:04;;;;;;;2.55;2.30;;;17.30;59.60;;;;;;5095529;28;20050;-69
2022/07/13 03:21:30;;;;;;;2.03;1.80;;;17.30;59.50;;;;;;5095334;28;20075;-70
2022/07/13 03:23:58;;;;;;;2.25;2.05;;;17.30;59.60;;;;;;5095439;28;20024;-69
2022/07/13 03:26:24;;;;;;;3.42;2.40;;;17.30;59.70;;;;;;5100368;28;20019;-69
2022/07/13 03:28:50;;;;;;;2.22;1.80;;;17.30;59.80;;;;;;5115667;28;20395;-68
2022/07/13 03:31:17;;;;;;;7.88;2.28;;;17.30;59.90;;;;;;5102062;28;20461;-68
2022/07/13 03:33:43;;;;;;;2.85;2.10;;;17.20;60.20;;;;;;5095275;28;20035;-69
2022/07/13 03:36:09;;;;;;;2.42;2.22;;;17.20;61.00;;;;;;5095183;28;20024;-70
2022/07/13 03:38:35;;;;;;;3.40;2.53;;;17.30;60.00;;;;;;5093752;28;20381;-68
2022/07/13 03:41:02;;;;;;;8.80;2.00;;;17.30;60.20;;;;;;5093757;28;20020;-69
2022/07/13 03:43:27;;;;;;;3.20;2.30;;;17.30;60.40;;;;;;5094845;28;20051;-68
2022/07/13 03:45:53;;;;;;;2.95;2.08;;;17.30;60.70;;;;;;5093610;28;20020;-71
2022/07/13 03:48:19;;;;;;;2.10;1.90;;;17.30;60.40;;;;;;5094959;28;20091;-71
2022/07/13 03:50:46;;;;;;;5.35;2.00;;;17.30;60.70;;;;;;5094988;28;20134;-71
2022/07/13 03:53:12;;;;;;;3.47;2.03;;;17.30;60.70;;;;;;5094789;28;20073;-68
2022/07/13 03:55:44;;;;;;;3.55;2.50;;;17.30;60.20;;;;;;5093559;28;20028;-68
2022/07/13 03:58:10;;;;;;;2.83;2.40;;;17.30;61.00;;;;;;5094682;28;20028;-70
2022/07/13 04:00:37;;;;;;;7.15;2.63;;;17.40;61.00;;;;;;5094709;28;20032;-69
2022/07/13 04:03:04;;;;;;;2.95;2.20;;;17.40;60.80;;;;;;5094628;28;20381;-69
2022/07/13 04:05:30;;;;;;;5.60;2.33;;;17.40;60.60;;;;;;5094556;28;20047;-70
2022/07/13 04:07:56;;;;;;;10.90;2.40;;;17.40;60.80;;;;;;5094448;28;20077;-70
2022/07/13 04:10:21;;;;;;;2.92;2.45;;;17.40;60.80;;;;;;5094322;28;20035;-67
2022/07/13 04:12:49;;;;;;;2.53;2.33;;;17.40;61.00;;;;;;5094172;28;20024;-70
2022/07/13 04:15:15;;;;;;;6.47;2.92;;;17.40;61.20;;;;;;5094359;28;20099;-70
2022/07/13 04:17:42;;;;;;;3.13;2.17;;;17.40;61.50;;;;;;5094223;28;20039;-70
2022/07/13 04:20:10;;;;;;;2.25;2.05;;;17.50;61.40;;;;;;5094040;28;20048;-71
2022/07/13 04:22:36;;;;;;;2.75;2.15;;;17.50;61.10;;;;;;5094117;28;20031;-68
2022/07/13 04:25:05;;;;;;;3.92;2.33;;;17.50;61.00;;;;;;5094166;28;20354;-71
2022/07/13 04:27:31;;;;;;;3.10;2.38;;;17.60;60.90;;;;;;5094253;28;20088;-71
2022/07/13 04:29:57;;;;;;;3.22;2.22;;;17.60;61.40;;;;;;5094012;28;20028;-68
2022/07/13 04:32:23;;;;;;;9.68;2.90;;;17.60;60.60;;;;;;5093995;28;20020;-71
2022/07/13 04:34:49;;;;;;;3.60;2.60;;;17.70;60.70;;;;;;5093983;28;20024;-69
2022/07/13 04:37:14;;;;;;;2.75;2.30;;;17.70;60.50;;;;;;5093938;28;20028;-69
2022/07/13 04:39:40;;;;;;;4.88;2.85;;;17.70;60.30;;;;;;5093980;28;20347;-69
2022/07/13 04:42:06;;;;;;;4.55;2.40;;;17.80;60.10;;;;;;5093727;28;20089;-70
2022/07/13 04:44:32;;;;;;;3.60;2.40;;;17.80;59.80;;;;;;5093855;28;20024;-68
2022/07/13 04:46:58;;;;;;;2.20;2.00;;;17.80;59.40;;;;;;5092565;28;20031;-71
2022/07/13 04:49:24;;;;;;;2.05;1.70;;;17.90;59.30;;;;;;5094039;28;20061;-70
2022/07/13 04:51:50;;;;;;;3.30;1.90;;;17.90;59.20;;;;;;5093687;28;20031;-71
2022/07/13 04:54:17;;;;;;;2.70;1.80;;;18.00;59.00;;;;;;5094892;28;20181;-70
2022/07/13 04:56:44;;;;;;;7.45;2.13;;;18.10;58.80;;;;;;5108136;28;20131;-71
2022/07/13 04:59:10;;;;;;;2.05;1.65;;;18.10;58.60;;;;;;5113978;28;20490;-69
2022/07/13 05:01:36;;;;;;;3.10;2.40;;;18.20;58.50;;;;;;5113812;28;20027;-71
2022/07/13 05:04:02;;;;;;;3.38;2.30;;;18.20;58.40;;;;;;5113879;28;20376;-69
2022/07/13 05:06:28;;;;;;;2.70;2.17;;;18.30;58.30;;;;;;5113848;28;20092;-70
2022/07/13 05:08:54;;;;;;;6.05;2.17;;;18.40;58.20;;;;;;5113859;28;20024;-71
2022/07/13 05:11:20;;;;;;;2.35;2.15;;;18.40;58.00;;;;;;5113722;28;20525;-71
2022/07/13 05:13:46;;;;;;;3.20;1.88;;;18.50;57.90;;;;;;5112491;28;20020;-70
2022/07/13 05:16:12;;;;;;;6.28;2.03;;;18.60;57.80;;;;;;5113652;28;20020;-68
2022/07/13 05:18:38;;;;;;;6.22;1.92;;;18.60;57.60;;;;;;5113613;28;20030;-69
2022/07/13 05:21:04;;;;;;;4.55;2.83;;;18.70;57.30;;;;;;5113478;28;20529;-71
2022/07/13 05:23:29;;;;;;;3.08;2.05;;;18.80;57.20;;;;;;5113339;28;20437;-68
2022/07/13 05:25:55;;;;;;;3.03;2.13;;;18.90;56.90;;;;;;5112745;28;20047;-70
2022/07/13 05:28:21;;;;;;;4.60;2.60;;;18.90;56.80;;;;;;5099107;28;20039;-71
2022/07/13 05:30:47;;;;;;;4.78;2.50;;;19.00;56.80;;;;;;5093055;28;20024;-68
2022/07/13 05:33:16;;;;;;;3.72;2.15;;;19.10;56.70;;;;;;5093018;28;20028;-68
2022/07/13 05:35:42;;;;;;;3.78;2.05;;;19.20;56.50;;;;;;5093008;28;20074;-71
2022/07/13 05:38:08;;;;;;;3.53;2.00;;;19.30;56.40;;;;;;5093021;28;20536;-68
2022/07/13 05:40:34;;;;;;;3.08;2.17;;;19.40;56.20;;;;;;5093044;28;20035;-69
2022/07/13 05:42:59;;;;;;;7.13;2.33;;;19.60;56.30;;;;;;5092949;28;20024;-70
2022/07/13 05:45:25;;;;;;;3.92;2.35;;;19.80;55.90;;;;;;5092852;28;20418;-68
2022/07/13 05:47:51;;;;;;;2.25;2.03;;;19.90;55.70;;;;;;5091597;28;20032;-70
2022/07/13 05:50:17;;;;;;;4.72;2.58;;;20.10;55.20;;;;;;5092851;28;20051;-71
2022/07/13 05:52:43;;;;;;;11.32;2.60;;;20.30;55.10;;;;;;5090473;28;20028;-68
2022/07/13 05:55:11;;;;;;;4.20;2.17;;;20.50;55.00;;;;;;5092250;28;20514;-69
2022/07/13 05:57:37;;;;;;;4.35;2.58;;;20.70;54.90;;;;;;5092392;28;20020;-70
2022/07/13 06:00:11;;;;;;;2.40;2.13;;;20.80;54.60;;;;;;5091625;28;20024;-70
2022/07/13 06:02:38;;;;;;;;;;;20.90;54.20;;;;;;5093334;28;20081;-68
2022/07/13 06:05:04;;;;;;;4.10;2.47;;;21.10;54.80;;;;;;5092952;28;19970;-69
2022/07/13 06:07:30;;;;;;;7.35;2.25;;;21.20;53.70;;;;;;5092942;28;20418;-70
2022/07/13 06:10:00;;;;;;;9.00;2.67;;;21.30;53.60;;;;;;5092874;28;20048;-70
2022/07/13 06:12:26;;;;;;;4.63;2.45;;;21.40;53.40;;;;;;5092852;28;20481;-70
2022/07/13 06:14:55;;;;;;;6.45;2.33;;;21.50;53.30;;;;;;5092866;28;20020;-68
2022/07/13 06:17:21;;;;;;;14.57;3.08;;;21.50;52.90;;;;;;5092732;28;20063;-69
2022/07/13 06:19:48;;;;;;;20.70;2.53;;;21.60;52.60;;;;;;5091240;28;20048;-69
2022/07/13 06:22:13;;;;;;;10.00;1.92;;;21.60;52.20;;;;;;5092566;28;20032;-69
2022/07/13 06:24:41;;;;;;;4.07;1.98;;;21.60;51.60;;;;;;5094081;28;20380;-70
2022/07/13 06:27:07;;;;;;;9.40;2.20;;;21.60;51.40;;;;;;5100338;28;20024;-71
2022/07/13 06:29:33;;;;;;;3.50;2.33;;;21.70;51.40;;;;;;5113006;28;20051;-69
2022/07/13 06:31:59;;;;;;;8.75;2.17;;;21.70;51.60;;;;;;5112901;28;20056;-68
2022/07/13 06:34:25;;;;;;;6.95;2.50;;;21.70;51.70;;;;;;5113008;28;20020;-69
2022/07/13 06:36:51;;;;;;;10.52;2.55;;;21.70;51.90;;;;;;5116076;28;20031;-68
2022/07/13 06:39:17;;;;;;;3.13;2.05;;;21.80;52.00;;;;;;5115517;28;20110;-70
2022/07/13 06:41:45;;;;;;;7.65;2.60;;;21.80;52.10;;;;;;5116708;28;20031;-69
2022/07/13 06:44:11;;;;;;;3.40;2.50;;;21.80;52.20;;;;;;5116671;28;20022;-72
2022/07/13 06:46:37;;;;;;;8.77;2.35;;;21.90;52.20;;;;;;5116705;28;20020;-70
2022/07/13 06:49:03;;;;;;;4.22;2.45;;;22.00;52.00;;;;;;5116655;28;20031;-69
2022/07/13 06:51:29;;;;;;;6.93;2.30;;;22.00;51.90;;;;;;5116505;28;20492;-72
2022/07/13 06:53:55;;;;;;;8.27;2.10;;;22.10;52.10;;;;;;5116505;28;20422;-71
2022/07/13 06:56:20;;;;;;;3.20;2.00;;;22.20;52.10;;;;;;5097770;28;20391;-70
2022/07/13 06:58:47;;;;;;;6.82;2.22;;;22.20;52.00;;;;;;5096006;28;20138;-70
2022/07/13 07:01:12;;;;;;;4.63;1.90;;;22.30;51.70;;;;;;5095926;28;20017;-69
2022/07/13 07:03:38;;;;;;;9.45;2.20;;;22.40;51.70;;;;;;5095942;28;20026;-69
2022/07/13 07:06:05;;;;;;;6.35;1.90;;;22.50;51.80;;;;;;5095836;28;20373;-68
2022/07/13 07:08:30;;;;;;;3.85;1.80;;;22.60;51.40;;;;;;5095875;28;20024;-72
2022/07/13 07:10:57;;;;;;;2.20;1.77;;;22.70;50.70;;;;;;5095746;28;20065;-70
2022/07/13 07:13:22;;;;;;;2.05;1.63;;;22.80;50.00;;;;;;5095724;28;20035;-69
2022/07/13 07:15:48;;;;;;;4.38;2.13;;;22.90;50.00;;;;;;5095619;28;20024;-70
2022/07/13 07:18:14;;;;;;;4.95;2.08;;;22.90;48.80;;;;;;5095599;28;20092;-71
2022/07/13 07:20:40;;;;;;;4.65;2.40;;;23.00;48.70;;;;;;5095413;28;20050;-71
2022/07/13 07:23:06;;;;;;;1.70;1.60;;;23.00;48.90;;;;;;5094222;28;20024;-71
2022/07/13 07:25:31;;;;;;;3.03;1.90;;;23.10;49.00;;;;;;5095513;28;20031;-71
2022/07/13 07:27:57;;;;;;;7.13;1.98;;;23.10;48.30;;;;;;5094059;28;20536;-68
2022/07/13 07:30:23;;;;;;;4.97;1.60;;;23.20;48.30;;;;;;5095401;28;20020;-71
2022/07/13 07:32:49;;;;;;;3.05;2.00;;;23.20;48.40;;;;;;5095343;28;20028;-70
2022/07/13 07:35:15;;;;;;;3.17;1.80;;;23.30;48.40;;;;;;5095318;28;20678;-70
2022/07/13 07:37:41;;;;;;;6.00;1.98;;;23.30;48.10;;;;;;5095345;28;20035;-71
2022/07/13 07:40:08;;;;;;;5.07;1.90;;;23.40;47.90;;;;;;5095241;28;20099;-68
2022/07/13 07:42:35;;;;;;;6.22;2.20;;;23.50;47.70;;;;;;5095094;28;20032;-68
2022/07/13 07:45:01;;;;;;;3.85;2.08;;;23.50;47.80;;;;;;5093903;28;20020;-71
2022/07/13 07:47:27;;;;;;;4.97;2.08;;;23.50;47.50;;;;;;5094428;28;20060;-68
2022/07/13 07:49:53;;;;;;;4.28;2.50;;;23.60;47.40;;;;;;5094896;28;20097;-71
2022/07/13 07:52:20;;;;;;;4.10;2.15;;;23.60;47.70;;;;;;5093716;28;20032;-68
2022/07/13 07:54:46;;;;;;;11.43;2.90;;;23.70;47.80;;;;;;5095353;27;20043;-68
2022/07/13 07:57:12;;;;;;;5.45;2.20;;;23.80;47.70;;;;;;5095027;28;20028;-69
2022/07/13 07:59:38;;;;;;;13.77;2.55;;;23.90;47.80;;;;;;5094944;28;20153;-71
2022/07/13 08:02:04;;;;;;;9.25;2.13;;;23.90;47.80;;;;;;5094745;28;20472;-70
2022/07/13 08:04:29;;;;;;;2.75;1.70;;;24.00;47.80;;;;;;5094788;28;20383;-69
2022/07/13 08:06:55;;;;;;;2.58;1.90;;;24.10;47.50;;;;;;5094733;28;20020;-71
2022/07/13 08:09:21;;;;;;;6.57;2.20;;;24.10;47.20;;;;;;5094978;28;20024;-70
2022/07/13 08:11:47;;;;;;;3.38;1.88;;;24.20;47.00;;;;;;5094703;28;20028;-71
2022/07/13 08:14:13;;;;;;;4.65;2.03;;;24.30;46.90;;;;;;5094616;28;20024;-71
2022/07/13 08:16:39;;;;;;;21.75;3.17;;;24.40;46.90;;;;;;5093147;28;20032;-69
2022/07/13 08:19:05;;;;;;;2.83;1.50;;;24.40;46.30;;;;;;5094492;28;20031;-70
2022/07/13 08:21:30;;;;;;;2.03;1.30;;;24.50;46.20;;;;;;5092788;28;20212;-69
2022/07/13 08:23:56;;;;;;;4.45;1.58;;;24.50;46.20;;;;;;5094195;28;20069;-68
2022/07/13 08:26:30;;;;;;;6.13;1.75;;;24.60;45.80;;;;;;5094409;28;20027;-69
2022/07/13 08:28:57;;;;;;;7.82;1.98;;;24.60;45.90;;;;;;5094135;28;20024;-68
2022/07/13 08:31:24;;;;;;;10.32;2.03;;;24.80;46.00;;;;;;5094107;28;20023;-69
2022/07/13 08:39:21;;;;;;;15.88;2.00;;;25.10;46.20;;;;;;5094175;28;20058;-68
2022/07/13 08:41:47;;;;;;;1.88;1.58;;;25.30;45.80;;;;;;5093952;28;20418;-68
2022/07/13 08:44:14;;;;;;;2.00;1.70;;;25.50;45.70;;;;;;5093957;28;20020;-70
2022/07/13 08:46:40;;;;;;;3.83;1.55;;;25.70;45.80;;;;;;5094002;28;20084;-70
2022/07/13 08:49:07;;;;;;;8.65;2.35;;;26.00;46.10;;;;;;5093902;28;20016;-68
2022/07/13 08:51:34;;;;;;;3.55;1.38;;;26.20;44.80;;;;;;5093898;28;20024;-69
2022/07/13 08:54:01;;;;;;;11.57;1.85;;;26.40;44.20;;;;;;5093787;28;20016;-69
2022/07/13 08:56:27;;;;;;;1.85;1.30;;;26.50;43.80;;;;;;5093642;28;20024;-70
2022/07/13 08:58:53;;;;;;;4.32;1.58;;;26.60;43.70;;;;;;5092975;28;20020;-68
2022/07/13 09:01:19;;;;;;;3.88;1.60;;;26.60;43.50;;;;;;5094221;28;20546;-68
2022/07/13 09:03:46;;;;;;;6.25;1.98;;;26.60;43.80;;;;;;5109899;28;20376;-67
2022/07/13 09:06:40;;;;;;;2.10;1.50;;;26.60;43.40;;;;;;5106199;28;20118;-68
2022/07/13 09:09:06;;;;;;;;;;;26.60;43.90;;;;;;5113320;28;20101;-69
2022/07/13 09:11:33;;;;;;;2.28;1.48;;;26.60;44.50;;;;;;5113086;28;19914;-71
2022/07/13 09:13:59;;;;;;;4.13;1.65;;;26.60;43.30;;;;;;5112621;28;20069;-69
2022/07/13 09:16:27;;;;;;;3.20;1.20;;;26.50;43.50;;;;;;5113034;28;20031;-72
2022/07/13 09:18:56;;;;;;;3.22;1.70;;;26.50;43.70;;;;;;5112579;28;20076;-72
2022/07/13 09:21:24;;;;;;;14.77;2.08;;;26.50;43.50;;;;;;5112428;28;20088;-72
2022/07/13 09:23:55;;;;;;;6.30;1.60;;;26.50;42.80;;;;;;5093290;28;20020;-70
2022/07/13 09:26:21;;;;;;;3.25;1.33;;;26.40;42.90;;;;;;5108478;28;20023;-70
2022/07/13 09:28:51;;;;;;;3.00;1.45;;;26.40;43.20;;;;;;5112601;28;20038;-70
2022/07/13 09:31:18;;;;;;;4.25;1.45;;;26.50;43.40;;;;;;5112356;28;20015;-70
2022/07/13 09:33:46;;;;;;;4.63;1.50;;;26.50;43.00;;;;;;5113593;28;20088;-70
2022/07/13 09:36:23;;;;;;;3.97;1.20;;;26.50;42.60;;;;;;5113527;28;20050;-69
2022/07/13 09:38:52;;;;;;;10.45;1.83;;;26.60;42.20;;;;;;5112588;28;20136;-68
2022/07/13 09:41:21;;;;;;;0.93;0.88;;;26.60;42.70;;;;;;5101092;28;20032;-71
2022/07/13 09:47:02;;;;;;;5.40;1.30;;;26.80;42.20;;;;;;5092873;28;20030;-69
2022/07/13 09:49:52;;;;;;;4.22;1.40;;;26.80;41.80;;;;;;5100725;28;20053;-69
2022/07/13 09:52:18;;;;;;;1.80;1.50;;;26.90;41.90;;;;;;5092889;28;20503;-71
2022/07/13 09:54:49;;;;;;;12.27;1.48;;;27.00;42.00;;;;;;5093150;28;20040;-68
2022/07/13 09:57:18;;;;;;;9.25;1.45;;;27.10;41.70;;;;;;5091774;28;20024;-70
2022/07/13 09:59:44;;;;;;;3.80;1.30;;;27.30;41.40;;;;;;5094300;28;20042;-70
2022/07/13 10:02:11;;;;;;;6.45;1.33;;;27.40;41.50;;;;;;5110676;28;20027;-69
2022/07/13 10:04:37;;;;;;;5.60;1.52;;;27.50;41.00;;;;;;5107745;28;20030;-71
2022/07/13 10:07:05;;;;;;;9.48;1.60;;;27.60;40.60;;;;;;5113160;28;20076;-67
2022/07/13 10:09:31;;;;;;;7.57;1.50;;;27.70;40.30;;;;;;5110710;28;20085;-68
2022/07/13 10:12:03;;;;;;;8.70;1.13;;;27.90;39.70;;;;;;5116601;28;20055;-70
2022/07/13 10:14:30;;;;;;;2.67;1.20;;;28.00;39.30;;;;;;5117148;28;20476;-69
2022/07/13 10:17:00;;;;;;;5.28;1.00;;;28.10;39.00;;;;;;5115440;28;20072;-71
2022/07/13 10:19:27;;;;;;;2.35;1.20;;;28.30;38.40;;;;;;5116883;28;20023;-69
2022/07/13 10:22:03;;;;;;;7.93;1.85;;;28.50;38.40;;;;;;5099719;28;20016;-69
2022/07/13 10:24:29;;;;;;;3.22;1.60;;;28.60;37.70;;;;;;5097019;28;20031;-70
2022/07/13 10:27:25;;;;;;;2.30;1.48;;;28.70;37.60;;;;;;5096677;28;20381;-69
2022/07/13 10:29:53;;;;;;;2.53;1.30;;;29.00;38.60;;;;;;5096648;28;20081;-69
2022/07/13 10:32:25;;;;;;;8.27;1.60;;;29.30;38.50;;;;;;5096350;28;20028;-70
2022/07/13 10:35:09;;;;;;;4.75;1.40;;;29.40;36.70;;;;;;5095086;28;20036;-69
2022/07/13 10:38:20;;;;;;;2.00;1.58;;;29.60;36.30;;;;;;5096425;28;20102;-71
2022/07/13 10:40:46;;;;;;;1.10;1.00;;;29.80;36.60;;;;;;5073751;28;20078;-70
2022/07/13 10:43:14;;;;;;;6.90;1.48;;;29.90;35.20;;;;;;5073579;28;20028;-71
2022/07/13 10:45:45;;;;;;;22.83;1.98;;;29.90;35.30;;;;;;5073654;28;20031;-69
2022/07/13 10:48:20;;;;;;;3.05;1.13;;;29.90;34.30;;;;;;5073708;28;20032;-71
2022/07/13 10:50:52;;;;;;;4.32;1.30;;;29.90;34.20;;;;;;5073735;28;20548;-70
2022/07/13 10:53:19;;;;;;;2.17;1.23;;;29.90;33.80;;;;;;5073799;28;20032;-70
2022/07/13 10:55:51;;;;;;;2.15;1.20;;;29.90;33.90;;;;;;5062732;28;20045;-70
2022/07/13 10:58:31;;;;;;;1.48;1.10;;;29.90;33.80;;;;;;5053716;28;20489;-71
2022/07/13 11:00:59;;;;;;;2.55;1.20;;;30.00;34.50;;;;;;5053685;28;20124;-69
2022/07/13 11:03:43;;;;;;;2.42;1.05;;;30.10;33.20;;;;;;5053482;28;20075;-70
2022/07/13 11:06:13;;;;;;;4.55;1.35;;;30.20;33.80;;;;;;5053416;28;20462;-71
2022/07/13 11:08:40;;;;;;;14.75;1.70;;;30.30;33.10;;;;;;5053518;28;20109;-71
2022/07/13 11:11:16;;;;;;;3.72;1.00;;;30.40;32.30;;;;;;5053404;28;20032;-71
2022/07/13 11:13:45;;;;;;;2.60;1.05;;;30.60;32.40;;;;;;5059781;28;20043;-70
2022/07/13 11:16:31;;;;;;;1.05;0.95;;;30.90;32.30;;;;;;5095756;28;20530;-68
2022/07/13 11:18:59;;;;;;;3.97;1.25;;;31.20;31.30;;;;;;5095352;28;20059;-70
2022/07/13 11:21:24;;;;;;;3.72;1.20;;;31.50;31.60;;;;;;5095065;28;20052;-70
2022/07/13 11:26:55;;;;;;;1.75;1.00;;;31.90;31.00;;;;;;5095805;28;20042;-70
2022/07/13 11:29:41;;;;;;;5.28;1.35;;;32.20;29.90;;;;;;5095516;28;20031;-70
2022/07/13 11:32:07;;;;;;;2.25;1.35;;;32.40;30.00;;;;;;5095430;28;20427;-69
2022/07/13 11:34:35;;;;;;;6.20;1.60;;;32.50;29.60;;;;;;5095292;28;20032;-70
2022/07/13 11:37:02;;;;;;;7.20;0.90;;;32.70;29.40;;;;;;5095236;28;20028;-70
2022/07/13 11:39:30;;;;;;;1.52;0.70;;;32.80;29.10;;;;;;5100838;27;20430;-69
2022/07/13 11:41:58;;;;;;;1.10;1.00;;;33.00;29.00;;;;;;5115570;28;20035;-70
2022/07/13 11:44:31;;;;;;;3.17;1.10;;;33.10;28.80;;;;;;5115556;28;20019;-70
2022/07/13 11:47:00;;;;;;;13.43;1.40;;;33.20;28.40;;;;;;5115451;28;20411;-70
2022/07/13 11:49:27;;;;;;;5.47;1.10;;;33.20;27.60;;;;;;5115560;28;20055;-70
2022/07/13 11:51:53;;;;;;;0.77;0.77;;;33.30;27.40;;;;;;5115429;28;20107;-70
2022/07/13 11:54:23;;;;;;;0.63;0.63;;;33.30;27.40;;;;;;5115418;27;20096;-70
2022/07/13 11:56:53;;;;;;;4.97;0.93;;;33.40;27.10;;;;;;5095814;28;20028;-71
2022/07/13 11:59:39;;;;;;;4.30;1.20;;;33.50;27.30;;;;;;5093922;28;20358;-72
2022/07/13 12:02:09;;;;;;;5.53;1.65;;;33.70;27.90;;;;;;5094805;28;20468;-69
2022/07/13 12:04:42;;;;;;;5.90;1.85;;;33.90;26.70;;;;;;5095176;28;20024;-70
2022/07/13 12:07:12;;;;;;;5.85;1.00;;;34.00;26.30;;;;;;5094545;28;20016;-71
2022/07/13 12:09:55;;;;;;;0.70;0.63;;;34.00;26.10;;;;;;5094730;28;20024;-70
2022/07/13 12:12:41;;;;;;;2.28;0.90;;;34.10;25.80;;;;;;5093347;28;20455;-69
2022/07/13 12:15:08;;;;;;;3.47;0.80;;;34.30;26.40;;;;;;5094183;28;20028;-70
2022/07/13 12:17:51;;;;;;;17.45;1.20;;;34.30;26.20;;;;;;5093048;28;20040;-70
2022/07/13 12:20:22;;;;;;;2.17;0.80;;;34.50;25.80;;;;;;5094262;28;20036;-70
2022/07/13 12:22:52;;;;;;;9.60;1.38;;;34.50;25.10;;;;;;5094391;28;20024;-71
2022/07/13 12:25:34;;;;;;;1.23;0.52;;;34.50;24.90;;;;;;5093344;28;20032;-70
2022/07/13 12:28:05;;;;;;;2.50;1.00;;;34.60;25.60;;;;;;5109863;28;20093;-69
2022/07/13 12:30:32;;;;;;;2.28;1.00;;;34.60;24.60;;;;;;5114491;28;20365;-70
2022/07/13 12:33:01;;;;;;;4.72;1.23;;;34.70;24.90;;;;;;5114451;27;20593;-70
2022/07/13 12:35:36;;;;;;;1.58;1.10;;;34.80;25.50;;;;;;5114476;28;20387;-69
2022/07/13 12:38:13;;;;;;;2.25;1.13;;;35.00;25.10;;;;;;5114374;28;20050;-70
2022/07/13 12:40:58;;;;;;;13.93;1.95;;;35.20;25.20;;;;;;5114398;28;20100;-71
2022/07/13 12:43:32;;;;;;;3.58;1.30;;;35.40;25.00;;;;;;5112898;28;20023;-72
2022/07/13 12:45:59;;;;;;;3.05;1.08;;;35.60;24.70;;;;;;5113084;28;20019;-70
2022/07/13 12:48:27;;;;;;;2.45;1.10;;;35.80;24.60;;;;;;5113010;28;20353;-71
2022/07/13 12:51:05;;;;;;;4.13;1.20;;;35.90;24.50;;;;;;5114241;28;20020;-71
2022/07/13 12:53:49;;;;;;;2.85;1.40;;;36.00;23.70;;;;;;5114283;28;20039;-70
2022/07/13 12:56:20;;;;;;;8.13;1.40;;;36.00;23.60;;;;;;5099899;28;20492;-69
2022/07/13 12:58:51;;;;;;;9.05;1.77;;;36.00;23.40;;;;;;5093655;28;20028;-70
2022/07/13 13:01:37;;;;;;;6.93;1.63;;;35.90;22.60;;;;;;5093736;28;20024;-69